createdAt,value
2022-12-17T00:00:42.399Z,17.67
2022-12-17T00:03:29.936Z,17.77
2022-12-17T00:06:17.251Z,17.70
2022-12-17T00:09:03.003Z,18.50
2022-12-17T00:11:49.113Z,17.43
2022-12-17T00:14:35.185Z,17.93
2022-12-17T00:17:21.158Z,17.63
2022-12-17T00:20:07.044Z,18.83
2022-12-17T00:22:54.292Z,17.80
2022-12-17T00:25:40.333Z,18.27
2022-12-17T00:28:29.781Z,18.10
2022-12-17T00:31:16.303Z,18.67
2022-12-17T00:34:02.474Z,18.17
2022-12-17T00:36:48.287Z,18.90
2022-12-17T00:39:35.858Z,17.97
2022-12-17T00:42:22.363Z,18.70
2022-12-17T00:45:08.406Z,17.43
2022-12-17T00:47:54.481Z,17.63
2022-12-17T00:50:48.867Z,18.60
2022-12-17T00:53:35.372Z,18.97
2022-12-17T00:56:23.252Z,18.83
2022-12-17T00:59:09.061Z,18.50
2022-12-17T01:01:55.881Z,18.27
2022-12-17T01:04:39.132Z,17.80
2022-12-17T01:07:25.433Z,18.50
2022-12-17T01:10:11.513Z,17.70
2022-12-17T01:12:58.623Z,19.67
2022-12-17T01:15:44.363Z,19.23
2022-12-17T01:18:37.761Z,18.03
2022-12-17T01:21:24.224Z,18.50
2022-12-17T01:24:10.316Z,18.77
2022-12-17T01:26:56.338Z,18.60
2022-12-17T01:29:43.576Z,17.80
2022-12-17T01:32:31.166Z,19.20
2022-12-17T01:35:17.181Z,18.03
2022-12-17T01:38:04.093Z,19.27
2022-12-17T01:40:50.110Z,19.13
2022-12-17T01:43:51.745Z,18.83
2022-12-17T01:46:41.427Z,19.93
2022-12-17T01:49:29.410Z,18.70
2022-12-17T01:52:18.528Z,18.93
2022-12-17T01:55:05.547Z,19.27
2022-12-17T01:57:52.442Z,19.73
2022-12-17T02:00:39.132Z,18.30
2022-12-17T02:03:34.310Z,19.20
2022-12-17T02:06:30.449Z,18.80
2022-12-17T02:09:26.573Z,19.53
2022-12-17T02:12:26.123Z,20.17
2022-12-17T02:15:22.447Z,19.47
2022-12-17T02:18:17.763Z,19.40
2022-12-17T02:21:09.947Z,19.93
2022-12-17T02:24:14.519Z,19.40
2022-12-17T02:27:08.196Z,20.40
2022-12-17T02:30:01.288Z,19.67
2022-12-17T02:32:52.152Z,19.80
2022-12-17T02:35:47.834Z,20.33
2022-12-17T02:38:42.920Z,19.47
2022-12-17T02:41:35.520Z,19.77
2022-12-17T02:44:39.446Z,20.03
2022-12-17T02:47:30.441Z,20.33
2022-12-17T02:50:16.388Z,19.67
2022-12-17T02:53:07.205Z,19.37
2022-12-17T02:55:54.620Z,20.60
2022-12-17T02:58:41.178Z,20.83
2022-12-17T03:01:28.743Z,20.43
2022-12-17T03:04:15.234Z,19.00
2022-12-17T03:07:02.329Z,20.10
2022-12-17T03:09:57.189Z,18.57
2022-12-17T03:12:43.563Z,21.93
2022-12-17T03:15:29.580Z,19.63
2022-12-17T03:18:16.823Z,19.80
2022-12-17T03:21:02.854Z,21.87
2022-12-17T03:23:49.024Z,20.90
2022-12-17T03:26:35.202Z,20.10
2022-12-17T03:29:21.325Z,21.00
2022-12-17T03:32:07.097Z,22.83
2022-12-17T03:34:54.159Z,20.63
2022-12-17T03:37:40.062Z,20.67
2022-12-17T03:40:27.269Z,20.67
2022-12-17T03:43:13.280Z,20.60
2022-12-17T03:45:59.286Z,22.07
2022-12-17T03:48:45.273Z,20.67
2022-12-17T03:51:32.684Z,20.07
2022-12-17T03:54:18.606Z,22.47
2022-12-17T03:57:04.650Z,20.07
2022-12-17T03:59:51.131Z,20.03
2022-12-17T04:02:36.343Z,21.13
2022-12-17T04:05:23.180Z,21.93
2022-12-17T04:08:10.836Z,20.30
2022-12-17T04:10:56.577Z,22.07
2022-12-17T04:13:43.056Z,20.13
2022-12-17T04:16:29.779Z,20.67
2022-12-17T04:19:15.494Z,21.23
2022-12-17T04:22:01.470Z,22.20
2022-12-17T04:24:48.765Z,22.27
2022-12-17T04:27:34.435Z,21.40
2022-12-17T04:30:20.498Z,21.10
2022-12-17T04:33:07.026Z,22.87
2022-12-17T04:35:53.291Z,21.93
2022-12-17T04:38:39.356Z,22.30
2022-12-17T04:41:26.658Z,21.50
2022-12-17T04:44:12.769Z,21.90
2022-12-17T04:46:58.691Z,22.40
2022-12-17T04:49:44.914Z,22.33
2022-12-17T04:52:30.311Z,22.70
2022-12-17T04:55:15.921Z,21.73
2022-12-17T04:58:03.167Z,23.53
2022-12-17T05:00:49.761Z,20.23
2022-12-17T05:03:36.312Z,21.43
2022-12-17T05:06:22.790Z,21.77
2022-12-17T05:09:05.288Z,21.33
2022-12-17T05:11:51.478Z,21.63
2022-12-17T05:14:38.534Z,21.53
2022-12-17T05:17:25.532Z,21.30
2022-12-17T05:20:11.569Z,21.97
2022-12-17T05:22:57.527Z,21.07
2022-12-17T05:25:43.583Z,20.97
2022-12-17T05:28:29.369Z,20.87
2022-12-17T05:31:16.793Z,21.97
2022-12-17T05:34:03.145Z,21.83
2022-12-17T05:36:48.828Z,21.00
2022-12-17T05:39:35.379Z,21.40
2022-12-17T05:42:21.248Z,21.57
2022-12-17T05:45:07.068Z,19.70
2022-12-17T05:47:54.425Z,20.97
2022-12-17T05:50:40.343Z,21.07
2022-12-17T05:53:27.703Z,20.73
2022-12-17T05:56:13.450Z,19.90
2022-12-17T05:58:59.120Z,21.07
2022-12-17T06:01:45.230Z,21.73
2022-12-17T06:04:32.232Z,22.67
2022-12-17T06:07:29.608Z,22.10
2022-12-17T06:10:15.235Z,23.97
2022-12-17T06:13:01.411Z,21.90
2022-12-17T06:15:48.200Z,21.50
2022-12-17T06:18:40.094Z,21.73
2022-12-17T06:21:27.438Z,21.47
2022-12-17T06:24:13.931Z,20.97
2022-12-17T06:27:00.077Z,20.53
2022-12-17T06:29:46.236Z,21.30
2022-12-17T06:32:32.301Z,20.93
2022-12-17T06:35:18.275Z,22.20
2022-12-17T06:38:05.607Z,20.13
2022-12-17T06:40:52.005Z,23.77
2022-12-17T06:43:39.162Z,20.90
2022-12-17T06:46:25.298Z,19.57
2022-12-17T06:49:11.194Z,21.40
2022-12-17T06:51:57.223Z,19.70
2022-12-17T06:54:46.959Z,19.77
2022-12-17T06:57:36.525Z,20.37
2022-12-17T07:00:27.742Z,19.97
2022-12-17T07:03:15.014Z,20.60
2022-12-17T07:06:01.521Z,19.67
2022-12-17T07:08:47.979Z,20.97
2022-12-17T07:11:35.175Z,21.33
2022-12-17T07:14:21.274Z,22.67
2022-12-17T07:17:07.209Z,21.47
2022-12-17T07:19:53.158Z,20.40
2022-12-17T07:22:39.158Z,21.93
2022-12-17T07:25:26.238Z,21.07
2022-12-17T07:28:14.675Z,20.40
2022-12-17T07:31:01.230Z,22.87
2022-12-17T07:33:47.626Z,22.10
2022-12-17T07:36:33.477Z,20.57
2022-12-17T07:39:19.427Z,20.60
2022-12-17T07:42:05.468Z,20.90
2022-12-17T07:44:52.529Z,19.73
2022-12-17T07:47:38.527Z,22.03
2022-12-17T07:50:25.302Z,22.53
2022-12-17T07:53:18.717Z,23.97
2022-12-17T07:56:05.077Z,23.20
2022-12-17T07:58:51.240Z,23.37
2022-12-17T08:01:38.737Z,24.90
2022-12-17T08:04:25.533Z,25.17
2022-12-17T08:07:14.172Z,22.27
2022-12-17T08:10:00.531Z,21.67
2022-12-17T08:12:43.049Z,16.93
2022-12-17T08:15:29.092Z,15.10
2022-12-17T08:18:24.488Z,15.90
2022-12-17T08:21:12.287Z,15.27
2022-12-17T08:23:58.147Z,16.93
2022-12-17T08:26:47.916Z,19.53
2022-12-17T08:29:34.767Z,17.17
2022-12-17T08:32:21.059Z,18.77
2022-12-17T08:35:08.579Z,22.80
2022-12-17T08:37:54.896Z,20.37
2022-12-17T08:40:41.261Z,20.83
2022-12-17T08:43:27.360Z,20.97
2022-12-17T08:46:13.698Z,20.20
2022-12-17T08:48:59.728Z,18.90
2022-12-17T08:51:43.326Z,20.10
2022-12-17T08:54:29.650Z,18.53
2022-12-17T08:57:30.854Z,25.33
2022-12-17T09:00:18.162Z,25.77
2022-12-17T09:03:04.228Z,24.80
2022-12-17T09:06:02.015Z,23.77
2022-12-17T09:08:49.559Z,19.97
2022-12-17T09:11:35.750Z,20.70
2022-12-17T09:14:21.577Z,20.67
2022-12-17T09:17:08.000Z,20.10
2022-12-17T09:19:54.230Z,20.83
2022-12-17T09:22:40.277Z,20.33
2022-12-17T09:25:27.993Z,20.70
2022-12-17T09:28:18.111Z,20.03
2022-12-17T09:31:04.131Z,22.13
2022-12-17T09:33:50.617Z,22.00
2022-12-17T09:36:36.669Z,21.27
2022-12-17T09:39:23.043Z,21.63
2022-12-17T09:42:24.867Z,20.50
2022-12-17T09:45:23.211Z,19.40
2022-12-17T09:48:22.851Z,20.90
2022-12-17T09:51:11.315Z,22.77
2022-12-17T09:54:03.802Z,21.03
2022-12-17T09:56:51.394Z,20.60
2022-12-17T09:59:42.318Z,21.40
2022-12-17T10:02:33.875Z,22.70
2022-12-17T10:05:22.704Z,21.80
2022-12-17T10:08:10.631Z,21.70
2022-12-17T10:11:03.321Z,21.70
2022-12-17T10:13:50.012Z,21.03
2022-12-17T10:16:50.736Z,20.77
2022-12-17T10:19:49.633Z,21.87
2022-12-17T10:22:39.486Z,21.87
2022-12-17T10:25:38.926Z,19.90
2022-12-17T10:28:25.990Z,19.43
2022-12-17T10:31:12.632Z,20.87
2022-12-17T10:34:00.276Z,20.27
2022-12-17T10:36:48.064Z,21.90
2022-12-17T10:39:42.645Z,20.67
2022-12-17T10:42:39.618Z,21.43
2022-12-17T10:45:44.439Z,22.33
2022-12-17T10:48:39.691Z,23.30
2022-12-17T10:51:40.046Z,24.30
2022-12-17T10:54:46.971Z,23.40
2022-12-17T10:57:56.057Z,21.53
2022-12-17T11:00:49.817Z,24.83
2022-12-17T11:04:19.778Z,24.83
2022-12-17T11:07:14.151Z,23.20
2022-12-17T11:10:09.512Z,23.80
2022-12-17T11:13:17.671Z,25.57
2022-12-17T11:16:08.012Z,22.73
2022-12-17T11:19:07.385Z,23.93
2022-12-17T11:22:00.458Z,22.20
2022-12-17T11:24:56.456Z,22.47
2022-12-17T11:27:47.890Z,21.57
2022-12-17T11:30:35.803Z,22.17
2022-12-17T11:33:36.112Z,22.10
2022-12-17T11:36:38.749Z,23.23
2022-12-17T11:39:38.874Z,23.50
2022-12-17T11:42:37.339Z,23.63
2022-12-17T11:45:37.916Z,23.60
2022-12-17T11:48:34.350Z,23.70
2022-12-17T11:51:30.565Z,23.30
2022-12-17T11:54:26.672Z,23.53
2022-12-17T11:57:26.891Z,24.40
2022-12-17T12:00:21.212Z,24.83
2022-12-17T12:03:35.159Z,25.20
2022-12-17T12:06:32.478Z,23.90
2022-12-17T12:09:34.168Z,23.83
2022-12-17T12:12:33.815Z,25.50
2022-12-17T12:15:38.369Z,26.03
2022-12-17T12:18:33.437Z,25.10
2022-12-17T12:21:47.314Z,26.50
2022-12-17T12:25:08.344Z,25.87
2022-12-17T12:28:06.516Z,24.13
2022-12-17T12:31:00.655Z,23.97
2022-12-17T12:33:59.602Z,24.30
2022-12-17T12:36:46.562Z,25.27
2022-12-17T12:39:42.957Z,27.20
2022-12-17T12:42:39.884Z,27.40
2022-12-17T12:46:00.731Z,27.07
2022-12-17T12:49:01.353Z,24.43
2022-12-17T12:51:50.293Z,24.20
2022-12-17T12:54:49.771Z,28.63
2022-12-17T12:57:48.354Z,27.93
2022-12-17T13:00:52.676Z,29.03
2022-12-17T13:03:46.792Z,28.00
2022-12-17T13:06:44.735Z,28.17
2022-12-17T13:09:35.046Z,28.50
2022-12-17T13:12:33.424Z,27.20
2022-12-17T13:15:20.847Z,27.63
2022-12-17T13:18:04.876Z,27.80
2022-12-17T13:20:35.863Z,26.53
2022-12-17T13:23:28.418Z,28.17
2022-12-17T13:26:20.330Z,26.97
2022-12-17T13:29:13.127Z,26.77
2022-12-17T13:32:03.645Z,25.70
2022-12-17T13:34:49.711Z,25.47
2022-12-17T13:37:34.231Z,25.70
2022-12-17T13:40:21.235Z,26.70
2022-12-17T13:42:50.654Z,26.93
2022-12-17T13:45:24.731Z,26.13
2022-12-17T13:47:59.198Z,26.47
2022-12-17T13:50:35.300Z,26.90
2022-12-17T13:53:12.001Z,26.67
2022-12-17T13:55:42.033Z,28.03
2022-12-17T13:58:27.228Z,28.47
2022-12-17T14:01:08.253Z,27.40
2022-12-17T14:04:04.333Z,27.40
2022-12-17T14:06:30.470Z,28.30
2022-12-17T14:08:59.907Z,27.07
2022-12-17T14:11:47.357Z,26.70
2022-12-17T14:14:28.100Z,25.50
2022-12-17T14:16:57.269Z,24.23
2022-12-17T14:19:28.166Z,24.87
2022-12-17T14:21:57.784Z,24.13
2022-12-17T14:24:29.611Z,25.40
2022-12-17T14:27:01.810Z,23.83
2022-12-17T14:29:33.420Z,23.67
2022-12-17T14:32:21.781Z,24.87
2022-12-17T14:34:51.343Z,22.87
2022-12-17T14:37:28.467Z,24.80
2022-12-17T14:40:05.197Z,25.57
2022-12-17T14:42:38.321Z,23.17
2022-12-17T14:45:23.919Z,24.13
2022-12-17T14:47:58.257Z,23.97
2022-12-17T14:50:32.560Z,25.37
2022-12-17T14:53:03.620Z,25.30
2022-12-17T14:55:37.864Z,23.93
2022-12-17T14:58:26.356Z,22.40
2022-12-17T15:01:05.277Z,20.90
2022-12-17T15:03:39.717Z,19.77
2022-12-17T15:06:11.613Z,21.43
2022-12-17T15:08:42.957Z,21.87
2022-12-17T15:11:13.227Z,20.10
2022-12-17T15:13:43.040Z,20.10
2022-12-17T15:16:11.875Z,21.40
2022-12-17T15:18:41.002Z,23.57
2022-12-17T15:21:13.100Z,23.87
2022-12-17T15:23:45.630Z,25.10
2022-12-17T15:26:15.251Z,24.10
2022-12-17T15:28:45.876Z,25.30
2022-12-17T15:31:19.516Z,25.47
2022-12-17T15:33:50.551Z,25.37
2022-12-17T15:36:20.324Z,24.77
2022-12-17T15:38:48.981Z,27.77
2022-12-17T15:41:35.134Z,27.97
2022-12-17T15:44:05.038Z,27.53
2022-12-17T15:46:33.704Z,27.10
2022-12-17T15:49:02.507Z,26.10
2022-12-17T15:51:31.273Z,26.57
2022-12-17T15:54:00.770Z,26.07
2022-12-17T15:56:30.088Z,28.33
2022-12-17T15:58:59.409Z,27.33
2022-12-17T16:01:29.353Z,27.57
2022-12-17T16:03:59.199Z,27.60
2022-12-17T16:06:27.493Z,27.77
2022-12-17T16:08:56.213Z,28.03
2022-12-17T16:11:24.858Z,26.07
2022-12-17T16:13:55.601Z,24.73
2022-12-17T16:16:24.610Z,24.70
2022-12-17T16:18:54.780Z,24.67
2022-12-17T16:21:23.396Z,24.77
2022-12-17T16:23:52.100Z,24.10
2022-12-17T16:26:20.753Z,27.37
2022-12-17T16:28:49.378Z,25.50
2022-12-17T16:31:18.006Z,26.70
2022-12-17T16:33:48.250Z,24.93
2022-12-17T16:36:21.869Z,23.70
2022-12-17T16:38:52.738Z,22.97
2022-12-17T16:41:22.962Z,22.80
2022-12-17T16:43:51.648Z,23.27
2022-12-17T16:46:29.946Z,23.17
2022-12-17T16:49:00.789Z,23.27
2022-12-17T16:51:30.639Z,23.87
2022-12-17T16:53:59.930Z,24.40
2022-12-17T16:56:31.856Z,24.37
2022-12-17T16:59:07.862Z,23.87
2022-12-17T17:01:38.529Z,24.90
2022-12-17T17:04:08.106Z,24.47
2022-12-17T17:06:45.141Z,23.73
2022-12-17T17:09:15.383Z,25.37
2022-12-17T17:11:49.495Z,25.47
2022-12-17T17:14:20.206Z,21.77
2022-12-17T17:16:48.880Z,22.97
2022-12-17T17:19:17.519Z,21.77
2022-12-17T17:21:52.824Z,20.60
2022-12-17T17:24:25.495Z,22.40
2022-12-17T17:26:55.335Z,22.77
2022-12-17T17:29:23.855Z,23.13
2022-12-17T17:32:09.966Z,24.40
2022-12-17T17:34:40.109Z,25.87
2022-12-17T17:37:10.480Z,26.23
2022-12-17T17:39:38.828Z,24.83
2022-12-17T17:42:07.668Z,28.37
2022-12-17T17:44:37.259Z,29.83
2022-12-17T17:47:06.025Z,27.77
2022-12-17T17:49:34.779Z,29.53
2022-12-17T17:52:11.920Z,28.33
2022-12-17T17:54:42.054Z,28.33
2022-12-17T17:57:11.774Z,28.53
2022-12-17T17:59:40.588Z,27.60
2022-12-17T18:02:11.223Z,28.53
2022-12-17T18:04:40.582Z,30.33
2022-12-17T18:07:25.228Z,29.60
2022-12-17T18:09:55.738Z,29.70
2022-12-17T18:12:41.976Z,30.27
2022-12-17T18:15:14.778Z,29.03
2022-12-17T18:17:45.828Z,29.17
2022-12-17T18:20:14.825Z,32.03
2022-12-17T18:22:43.609Z,29.57
2022-12-17T18:25:13.383Z,30.00
2022-12-17T18:27:42.645Z,30.40
2022-12-17T18:30:12.123Z,32.60
2022-12-17T18:32:40.783Z,32.20
2022-12-17T18:35:10.249Z,30.43
2022-12-17T18:37:38.935Z,30.67
2022-12-17T18:40:09.397Z,29.10
2022-12-17T18:42:56.355Z,32.27
2022-12-17T18:45:25.108Z,32.67
2022-12-17T18:47:53.723Z,30.43
2022-12-17T18:50:22.084Z,28.60
2022-12-17T18:52:50.763Z,27.90
2022-12-17T18:55:19.586Z,27.83
2022-12-17T18:57:49.325Z,31.40
2022-12-17T19:00:18.218Z,30.73
2022-12-17T19:02:46.936Z,31.90
2022-12-17T19:05:15.678Z,31.50
2022-12-17T19:07:44.369Z,28.93
2022-12-17T19:10:13.092Z,29.40
2022-12-17T19:12:41.719Z,28.43
2022-12-17T19:15:12.227Z,28.43
2022-12-17T19:17:40.923Z,26.93
2022-12-17T19:20:10.893Z,26.10
2022-12-17T19:22:39.649Z,27.50
2022-12-17T19:25:08.641Z,26.50
2022-12-17T19:27:37.084Z,30.13
2022-12-17T19:30:06.756Z,29.90
2022-12-17T19:32:36.530Z,33.00
2022-12-17T19:35:05.615Z,32.10
2022-12-17T19:37:34.315Z,28.33
2022-12-17T19:40:02.646Z,28.00
2022-12-17T19:42:37.024Z,28.20
2022-12-17T19:45:06.911Z,30.93
2022-12-17T19:47:36.596Z,30.37
2022-12-17T19:50:06.427Z,29.90
2022-12-17T19:52:35.267Z,29.70
2022-12-17T19:55:04.004Z,29.13
2022-12-17T19:57:34.805Z,32.27
2022-12-17T20:00:03.269Z,34.10
2022-12-17T20:02:42.589Z,34.30
2022-12-17T20:05:11.512Z,34.97
2022-12-17T20:07:41.461Z,35.33
2022-12-17T20:10:10.304Z,33.63
2022-12-17T20:12:39.034Z,32.70
2022-12-17T20:15:08.409Z,31.97
2022-12-17T20:17:37.039Z,32.23
2022-12-17T20:20:08.451Z,34.00
2022-12-17T20:22:37.260Z,30.43
2022-12-17T20:25:09.366Z,30.47
2022-12-17T20:27:37.770Z,29.70
2022-12-17T20:30:08.073Z,30.17
2022-12-17T20:32:37.492Z,30.03
2022-12-17T20:35:08.937Z,29.70
2022-12-17T20:37:37.653Z,31.40
2022-12-17T20:40:07.953Z,30.70
2022-12-17T20:42:36.705Z,31.83
2022-12-17T20:45:05.955Z,29.13
2022-12-17T20:47:34.565Z,30.83
2022-12-17T20:50:03.228Z,29.03
2022-12-17T20:52:33.221Z,29.97
2022-12-17T20:55:01.893Z,29.40
2022-12-17T20:57:30.437Z,28.47
2022-12-17T20:59:59.432Z,30.17
2022-12-17T21:02:28.452Z,28.60
2022-12-17T21:04:57.220Z,26.77
2022-12-17T21:07:25.599Z,27.30
2022-12-17T21:09:55.423Z,25.67
2022-12-17T21:12:44.065Z,28.20
2022-12-17T21:15:12.720Z,26.10
2022-12-17T21:17:41.024Z,28.33
2022-12-17T21:20:10.725Z,27.03
2022-12-17T21:22:41.267Z,25.10
2022-12-17T21:25:11.514Z,25.23
2022-12-17T21:27:39.811Z,26.20
2022-12-17T21:30:13.436Z,27.20
2022-12-17T21:32:42.279Z,25.93
2022-12-17T21:35:11.327Z,27.00
2022-12-17T21:37:39.933Z,27.10
2022-12-17T21:40:12.714Z,29.40
2022-12-17T21:43:00.577Z,30.20
2022-12-17T21:45:29.592Z,27.93
2022-12-17T21:47:59.062Z,29.87
2022-12-17T21:50:27.683Z,30.00
2022-12-17T21:52:56.308Z,30.67
2022-12-17T21:55:27.259Z,32.60
2022-12-17T21:57:55.637Z,36.10
2022-12-17T22:00:24.308Z,35.97
2022-12-17T22:02:52.913Z,37.23
2022-12-17T22:05:21.786Z,39.77
2022-12-17T22:07:51.262Z,41.93
2022-12-17T22:10:44.738Z,41.60
2022-12-17T22:13:29.642Z,43.00
2022-12-17T22:15:58.012Z,45.97
2022-12-17T22:18:26.790Z,33.80
2022-12-17T22:20:59.381Z,33.00
2022-12-17T22:23:27.929Z,37.50
2022-12-17T22:25:56.676Z,32.73
2022-12-17T22:28:26.449Z,36.43
2022-12-17T22:31:12.562Z,32.10
2022-12-17T22:34:01.806Z,33.27
2022-12-17T22:38:41.682Z,34.27
2022-12-17T22:43:06.694Z,31.87
2022-12-17T22:44:41.940Z,33.00
2022-12-17T22:45:17.705Z,32.00
2022-12-17T22:47:46.800Z,29.17
2022-12-17T22:50:15.471Z,27.23
2022-12-17T22:52:44.604Z,31.13
2022-12-17T22:55:13.326Z,28.70
2022-12-17T22:57:42.174Z,27.43
2022-12-17T23:00:22.100Z,27.40
2022-12-17T23:02:54.118Z,28.97
2022-12-17T23:05:23.713Z,27.90
2022-12-17T23:07:52.985Z,27.47
2022-12-17T23:10:22.376Z,26.53
2022-12-17T23:12:54.265Z,22.30
2022-12-17T23:15:29.062Z,22.97
2022-12-17T23:18:01.166Z,25.17
2022-12-17T23:20:32.284Z,22.07
2022-12-17T23:23:01.418Z,23.87
2022-12-17T23:25:30.475Z,22.50
2022-12-17T23:27:59.207Z,22.77
2022-12-17T23:30:29.259Z,23.30
2022-12-17T23:32:57.634Z,22.70
2022-12-17T23:35:25.991Z,25.33
2022-12-17T23:37:54.357Z,25.23
2022-12-17T23:40:23.168Z,26.73
2022-12-17T23:42:51.810Z,22.53
2022-12-17T23:45:20.346Z,24.47
2022-12-17T23:47:50.011Z,23.23
2022-12-17T23:50:18.654Z,21.83
2022-12-17T23:52:47.319Z,24.10
2022-12-17T23:55:15.952Z,22.80
2022-12-17T23:57:44.325Z,22.90
